Time;durP1;ratioP1;P1;durP2;ratioP2;P2;SDS_P1;SDS_P2;PMS_P1;PMS_P2;Temp;Humidity;BMP_temperature;BMP_pressure;BME280_temperature;BME280_humidity;BME280_pressure;Samples;Min_cycle;Max_cycle;Signal;HPM_P1;HPM_P2
2023/12/03 00:01:14;;;;;;;29.17;11.45;;;;;;;;;;6198849;28;20042;-79
2023/12/03 00:04:15;;;;;;;24.92;10.13;;;;;;;;;;6201764;28;21644;-78
2023/12/03 00:07:17;;;;;;;22.27;9.40;;;;;;;;;;6193578;28;20050;-77
2023/12/03 00:10:19;;;;;;;29.60;11.20;;;;;;;;;;6201830;28;20050;-78
2023/12/03 00:13:21;;;;;;;25.08;10.98;;;;;;;;;;6206467;28;20057;-78
2023/12/03 00:16:22;;;;;;;28.65;12.93;;;;;;;;;;6203127;28;20041;-80
2023/12/03 00:19:24;;;;;;;30.05;13.98;;;;;;;;;;6207692;28;20054;-79
2023/12/03 00:22:26;;;;;;;25.13;11.10;;;;;;;;;;6203877;28;20100;-80
2023/12/03 00:25:29;;;;;;;34.30;13.60;;;;;;;;;;6204932;28;20138;-79
2023/12/03 00:28:31;;;;;;;36.50;13.73;;;;;;;;;;6205452;28;20046;-80
2023/12/03 00:31:34;;;;;;;37.45;14.15;;;;;;;;;;6204990;28;20041;-80
2023/12/03 00:34:35;;;;;;;32.30;13.40;;;;;;;;;;6204400;28;20240;-77
2023/12/03 00:37:37;;;;;;;34.53;13.15;;;;;;;;;;6193229;28;20050;-79
2023/12/03 00:40:39;;;;;;;28.58;13.10;;;;;;;;;;6203270;28;20441;-80
2023/12/03 00:43:41;;;;;;;34.50;14.20;;;;;;;;;;6207435;28;20057;-79
2023/12/03 00:46:42;;;;;;;35.55;13.23;;;;;;;;;;6204594;28;20048;-75
2023/12/03 00:49:44;;;;;;;29.95;12.48;;;;;;;;;;6221276;28;20049;-78
2023/12/03 00:52:46;;;;;;;24.42;10.88;;;;;;;;;;6183731;28;20057;-78
2023/12/03 00:55:48;;;;;;;27.88;11.40;;;;;;;;;;6205470;28;20052;-78
2023/12/03 00:58:50;;;;;;;22.35;10.18;;;;;;;;;;6208659;28;20046;-77
2023/12/03 01:01:51;;;;;;;24.45;9.38;;;;;;;;;;6204795;28;20057;-76
2023/12/03 01:04:53;;;;;;;19.88;8.75;;;;;;;;;;6186623;28;20553;-78
2023/12/03 01:07:55;;;;;;;21.17;9.63;;;;;;;;;;6203162;28;20056;-76
2023/12/03 01:10:57;;;;;;;22.45;9.95;;;;;;;;;;6204234;28;20113;-79
2023/12/03 01:13:58;;;;;;;25.00;9.82;;;;;;;;;;6204347;28;20061;-78
2023/12/03 01:17:00;;;;;;;23.15;9.82;;;;;;;;;;6203229;28;20045;-78
2023/12/03 01:20:02;;;;;;;23.52;10.00;;;;;;;;;;6206419;28;20053;-79
2023/12/03 01:23:04;;;;;;;24.92;9.60;;;;;;;;;;6204932;28;20050;-77
2023/12/03 01:26:06;;;;;;;22.85;9.57;;;;;;;;;;6201779;28;20054;-78
2023/12/03 01:29:08;;;;;;;23.05;9.05;;;;;;;;;;6199410;28;20057;-78
2023/12/03 01:32:10;;;;;;;24.92;9.55;;;;;;;;;;6205405;28;20511;-79
2023/12/03 01:35:12;;;;;;;25.20;10.25;;;;;;;;;;6208241;28;20504;-79
2023/12/03 01:38:14;;;;;;;22.40;9.35;;;;;;;;;;6197965;28;20061;-79
2023/12/03 01:41:16;;;;;;;25.70;11.55;;;;;;;;;;6220388;28;20046;-79
2023/12/03 01:44:18;;;;;;;21.85;9.80;;;;;;;;;;6207537;28;20363;-78
2023/12/03 01:47:21;;;;;;;27.02;10.10;;;;;;;;;;6207938;28;20423;-79
2023/12/03 01:50:23;;;;;;;30.60;11.68;;;;;;;;;;6195665;28;20042;-76
2023/12/03 01:53:25;;;;;;;24.00;10.07;;;;;;;;;;6206711;28;20060;-78
2023/12/03 01:56:27;;;;;;;26.87;10.10;;;;;;;;;;6204199;28;20164;-79
2023/12/03 01:59:31;;;;;;;24.05;10.40;;;;;;;;;;6199278;28;20423;-77
2023/12/03 02:02:32;;;;;;;24.85;9.57;;;;;;;;;;6205275;28;20042;-77
2023/12/03 02:05:35;;;;;;;25.90;9.57;;;;;;;;;;6206448;28;20100;-79
2023/12/03 02:08:37;;;;;;;26.00;10.52;;;;;;;;;;6207954;28;20448;-78
2023/12/03 02:11:39;;;;;;;24.73;9.63;;;;;;;;;;6208847;28;20045;-78
2023/12/03 02:14:40;;;;;;;24.38;10.27;;;;;;;;;;6207332;28;20049;-77
2023/12/03 02:17:42;;;;;;;25.40;10.45;;;;;;;;;;6189835;28;20058;-79
2023/12/03 02:20:44;;;;;;;25.25;9.38;;;;;;;;;;6182047;28;20081;-76
2023/12/03 02:23:47;;;;;;;27.73;10.27;;;;;;;;;;6218997;28;20148;-78
2023/12/03 02:26:49;;;;;;;29.45;10.73;;;;;;;;;;6231511;28;20055;-77
2023/12/03 02:29:50;;;;;;;22.50;9.60;;;;;;;;;;6204076;28;20057;-79
2023/12/03 02:32:52;;;;;;;25.73;10.15;;;;;;;;;;6208981;28;20592;-79
2023/12/03 02:35:53;;;;;;;25.25;9.93;;;;;;;;;;6207757;28;20060;-78
2023/12/03 02:38:55;;;;;;;26.17;10.38;;;;;;;;;;6198790;28;20411;-78
2023/12/03 02:41:57;;;;;;;29.42;11.40;;;;;;;;;;6206155;28;20050;-78
2023/12/03 02:44:59;;;;;;;27.40;11.27;;;;;;;;;;6209696;28;20053;-78
2023/12/03 02:48:00;;;;;;;25.85;9.82;;;;;;;;;;6204911;28;20125;-79
2023/12/03 02:51:02;;;;;;;22.23;9.18;;;;;;;;;;6208673;28;20061;-78
2023/12/03 02:54:04;;;;;;;26.20;10.13;;;;;;;;;;6206376;28;20439;-78
2023/12/03 02:57:06;;;;;;;22.55;9.38;;;;;;;;;;6193888;28;20577;-78
2023/12/03 03:00:08;;;;;;;23.98;10.38;;;;;;;;;;6208336;28;20042;-77
2023/12/03 03:03:10;;;;;;;25.33;9.90;;;;;;;;;;6173878;28;20066;-79
2023/12/03 03:06:11;;;;;;;25.63;10.52;;;;;;;;;;6206591;28;20575;-79
2023/12/03 03:09:13;;;;;;;24.95;10.23;;;;;;;;;;6199317;28;20359;-79
2023/12/03 03:12:15;;;;;;;25.65;9.95;;;;;;;;;;6205095;28;20048;-77
2023/12/03 03:15:17;;;;;;;27.63;10.73;;;;;;;;;;6223859;28;20385;-79
2023/12/03 03:18:19;;;;;;;21.85;9.38;;;;;;;;;;6205322;28;20726;-78
2023/12/03 03:21:21;;;;;;;25.35;11.07;;;;;;;;;;6194042;28;20523;-78
2023/12/03 03:24:23;;;;;;;29.13;10.93;;;;;;;;;;6206167;28;20138;-79
2023/12/03 03:27:24;;;;;;;27.58;10.63;;;;;;;;;;6214384;28;20054;-79
2023/12/03 03:30:26;;;;;;;32.72;13.05;;;;;;;;;;6208052;28;20057;-79
2023/12/03 03:33:28;;;;;;;29.67;11.02;;;;;;;;;;6206728;28;20045;-79
2023/12/03 03:36:30;;;;;;;27.25;10.80;;;;;;;;;;6196341;28;20045;-78
2023/12/03 03:39:32;;;;;;;27.90;11.02;;;;;;;;;;6191752;28;20088;-76
2023/12/03 03:42:33;;;;;;;28.92;10.77;;;;;;;;;;6191456;28;20583;-77
2023/12/03 03:45:35;;;;;;;24.63;10.95;;;;;;;;;;6194290;28;20195;-79
2023/12/03 03:48:37;;;;;;;23.77;10.35;;;;;;;;;;6189506;28;20074;-78
2023/12/03 03:51:39;;;;;;;28.40;9.98;;;;;;;;;;6195580;28;20144;-77
2023/12/03 03:54:41;;;;;;;22.17;9.32;;;;;;;;;;6188449;28;20042;-78
2023/12/03 03:57:42;;;;;;;23.67;10.55;;;;;;;;;;6186229;28;20064;-77
2023/12/03 04:00:44;;;;;;;21.75;9.05;;;;;;;;;;6182694;28;20045;-77
2023/12/03 04:03:46;;;;;;;25.17;9.57;;;;;;;;;;6184204;28;20054;-78
2023/12/03 04:06:48;;;;;;;26.20;11.27;;;;;;;;;;6182104;28;20042;-79
2023/12/03 04:09:50;;;;;;;22.40;9.85;;;;;;;;;;6176924;28;20046;-79
2023/12/03 04:12:51;;;;;;;23.75;9.93;;;;;;;;;;6187870;28;20064;-78
2023/12/03 04:15:53;;;;;;;25.40;10.70;;;;;;;;;;6170923;28;20050;-77
2023/12/03 04:18:55;;;;;;;29.58;11.10;;;;;;;;;;6184623;28;20045;-78
2023/12/03 04:21:57;;;;;;;28.50;9.82;;;;;;;;;;6184351;28;20065;-79
2023/12/03 04:24:58;;;;;;;24.15;10.30;;;;;;;;;;6186581;28;20064;-78
2023/12/03 04:28:01;;;;;;;24.05;9.65;;;;;;;;;;6189917;28;20049;-78
2023/12/03 04:31:03;;;;;;;26.83;10.68;;;;;;;;;;6185883;28;20061;-79
2023/12/03 04:34:05;;;;;;;27.25;10.00;;;;;;;;;;6181927;28;20691;-79
2023/12/03 04:37:07;;;;;;;22.25;9.38;;;;;;;;;;6188524;28;20046;-77
2023/12/03 04:40:09;;;;;;;23.70;9.55;;;;;;;;;;6191126;28;20057;-78
2023/12/03 04:43:11;;;;;;;25.92;11.27;;;;;;;;;;6187254;28;20046;-78
2023/12/03 04:46:13;;;;;;;21.58;9.95;;;;;;;;;;6187798;28;20073;-78
2023/12/03 04:49:15;;;;;;;26.80;10.13;;;;;;;;;;6187307;28;20045;-78
2023/12/03 04:52:17;;;;;;;25.35;11.27;;;;;;;;;;6194850;28;20052;-79
2023/12/03 04:55:19;;;;;;;28.83;12.75;;;;;;;;;;6195733;28;20051;-77
2023/12/03 04:58:21;;;;;;;24.77;10.95;;;;;;;;;;6189461;28;20053;-79
2023/12/03 05:01:23;;;;;;;22.40;9.27;;;;;;;;;;6194633;28;20069;-79
2023/12/03 05:04:26;;;;;;;26.63;10.47;;;;;;;;;;6198877;28;20467;-77
2023/12/03 05:07:28;;;;;;;26.05;10.82;;;;;;;;;;6188923;28;20461;-79
2023/12/03 05:10:30;;;;;;;24.70;10.38;;;;;;;;;;6197498;28;20041;-77
2023/12/03 05:13:32;;;;;;;22.50;9.55;;;;;;;;;;6188064;28;20108;-78
2023/12/03 05:16:34;;;;;;;24.90;10.60;;;;;;;;;;6188028;28;20085;-76
2023/12/03 05:19:36;;;;;;;25.33;10.75;;;;;;;;;;6193858;28;20149;-76
2023/12/03 05:22:38;;;;;;;23.00;10.00;;;;;;;;;;6189070;28;20635;-79
2023/12/03 05:25:41;;;;;;;26.33;11.07;;;;;;;;;;6191540;28;20050;-77
2023/12/03 05:28:45;;;;;;;24.70;10.20;;;;;;;;;;6193938;28;20053;-78
2023/12/03 05:31:50;;;;;;;22.80;9.27;;;;;;;;;;6192824;28;20125;-80
2023/12/03 05:34:54;;;;;;;28.77;10.35;;;;;;;;;;6200804;28;20046;-79
2023/12/03 05:37:55;;;;;;;22.85;9.25;;;;;;;;;;6181348;28;20508;-79
2023/12/03 05:40:57;;;;;;;26.30;10.40;;;;;;;;;;6174803;28;20046;-78
2023/12/03 05:43:59;;;;;;;24.50;9.00;;;;;;;;;;6191547;28;20053;-79
2023/12/03 05:47:01;;;;;;;25.15;10.05;;;;;;;;;;6190939;28;20185;-79
2023/12/03 05:50:04;;;;;;;24.52;9.02;;;;;;;;;;6186386;28;20046;-79
2023/12/03 05:53:07;;;;;;;23.25;9.60;;;;;;;;;;6173502;28;20053;-77
2023/12/03 05:56:09;;;;;;;23.48;9.80;;;;;;;;;;6195556;28;20049;-79
2023/12/03 05:59:11;;;;;;;26.33;10.32;;;;;;;;;;6211334;28;20834;-79
2023/12/03 06:02:13;;;;;;;27.60;10.23;;;;;;;;;;6207400;28;20049;-79
2023/12/03 06:05:15;;;;;;;23.23;10.03;;;;;;;;;;6210606;28;20042;-79
2023/12/03 06:08:17;;;;;;;23.98;9.68;;;;;;;;;;6219140;28;20403;-80
2023/12/03 06:11:19;;;;;;;25.95;9.40;;;;;;;;;;6211152;28;20077;-79
2023/12/03 06:14:21;;;;;;;21.92;9.65;;;;;;;;;;6212230;28;20075;-77
2023/12/03 06:17:22;;;;;;;46.03;14.43;;;;;;;;;;6196758;28;20054;-79
2023/12/03 06:20:24;;;;;;;35.67;12.80;;;;;;;;;;6208582;28;20069;-80
2023/12/03 06:23:26;;;;;;;25.52;10.80;;;;;;;;;;6197860;28;20133;-78
2023/12/03 06:26:27;;;;;;;26.75;11.45;;;;;;;;;;6210418;28;20133;-79
2023/12/03 06:29:29;;;;;;;31.77;12.38;;;;;;;;;;6178609;28;20207;-79
2023/12/03 06:32:31;;;;;;;43.67;13.82;;;;;;;;;;6210714;28;20092;-79
2023/12/03 06:35:33;;;;;;;29.50;11.05;;;;;;;;;;6205724;28;20548;-81
2023/12/03 06:38:35;;;;;;;23.42;9.73;;;;;;;;;;6201607;28;20045;-78
2023/12/03 06:41:38;;;;;;;20.08;9.38;;;;;;;;;;6207385;28;20068;-80
2023/12/03 06:44:39;;;;;;;29.15;10.27;;;;;;;;;;6232481;28;20052;-81
2023/12/03 06:47:45;;;;;;;23.30;9.20;;;;;;;;;;6212241;28;20080;-77
2023/12/03 06:50:47;;;;;;;25.70;9.93;;;;;;;;;;6215781;28;20046;-80
2023/12/03 06:53:49;;;;;;;22.35;9.40;;;;;;;;;;6214278;28;20061;-79
2023/12/03 06:56:50;;;;;;;29.75;11.48;;;;;;;;;;6209071;28;20061;-78
2023/12/03 06:59:53;;;;;;;30.38;11.82;;;;;;;;;;6219734;28;20045;-80
2023/12/03 07:02:55;;;;;;;30.27;12.27;;;;;;;;;;6218842;28;20065;-78
2023/12/03 07:05:59;;;;;;;25.42;10.23;;;;;;;;;;6219323;28;20050;-79
2023/12/03 07:09:01;;;;;;;29.52;11.20;;;;;;;;;;6215152;28;20128;-77
2023/12/03 07:12:22;;;;;;;24.48;10.30;;;;;;;;;;6212926;28;20052;-78
2023/12/03 07:15:25;;;;;;;28.65;10.25;;;;;;;;;;6207451;28;20058;-78
2023/12/03 07:18:27;;;;;;;24.95;9.73;;;;;;;;;;6220377;28;20726;-79
2023/12/03 07:21:29;;;;;;;28.88;11.23;;;;;;;;;;6224617;28;20056;-78
2023/12/03 07:24:31;;;;;;;31.13;11.10;;;;;;;;;;6215471;28;20117;-78
2023/12/03 07:27:32;;;;;;;28.45;11.88;;;;;;;;;;6221006;28;20069;-79
2023/12/03 07:30:34;;;;;;;31.73;13.68;;;;;;;;;;6217513;28;20101;-78
2023/12/03 07:33:36;;;;;;;26.00;9.43;;;;;;;;;;6216024;28;20057;-79
2023/12/03 07:36:38;;;;;;;22.58;8.60;;;;;;;;;;6218318;28;20050;-76
2023/12/03 07:39:40;;;;;;;21.90;8.52;;;;;;;;;;6211291;28;20045;-78
2023/12/03 07:42:42;;;;;;;23.98;9.30;;;;;;;;;;6217975;28;20077;-77
2023/12/03 07:45:44;;;;;;;24.17;9.85;;;;;;;;;;6214380;28;20057;-79
2023/12/03 07:48:46;;;;;;;25.30;9.95;;;;;;;;;;6215926;28;20046;-80
2023/12/03 07:51:48;;;;;;;25.65;9.90;;;;;;;;;;6189389;28;20050;-78
2023/12/03 07:54:49;;;;;;;28.48;13.50;;;;;;;;;;6187450;28;20526;-77
2023/12/03 07:57:51;;;;;;;27.17;10.13;;;;;;;;;;6213135;28;20511;-78
2023/12/03 08:00:53;;;;;;;22.73;10.38;;;;;;;;;;6203906;28;20045;-78
2023/12/03 08:03:55;;;;;;;25.45;9.93;;;;;;;;;;6228285;28;20049;-79
2023/12/03 08:06:57;;;;;;;25.08;8.93;;;;;;;;;;6197653;28;20073;-78
2023/12/03 08:09:58;;;;;;;25.65;9.90;;;;;;;;;;6213633;28;20056;-80
2023/12/03 08:13:00;;;;;;;28.00;11.48;;;;;;;;;;6209085;28;20049;-79
2023/12/03 08:16:03;;;;;;;24.45;9.90;;;;;;;;;;6198036;28;20061;-79
2023/12/03 08:19:05;;;;;;;;;;;;;;;;;;6206294;28;20057;-78
2023/12/03 08:22:07;;;;;;;22.75;9.05;;;;;;;;;;6208122;28;19929;-79
2023/12/03 08:25:09;;;;;;;20.13;9.00;;;;;;;;;;6205505;28;20057;-79
2023/12/03 08:28:13;;;;;;;24.00;9.20;;;;;;;;;;6217094;28;20112;-79
2023/12/03 08:31:15;;;;;;;22.90;8.70;;;;;;;;;;6207766;28;20045;-78
2023/12/03 08:34:19;;;;;;;22.65;9.50;;;;;;;;;;6208276;28;20050;-77
2023/12/03 08:37:21;;;;;;;24.33;9.60;;;;;;;;;;6193727;28;20092;-81
2023/12/03 08:40:22;;;;;;;24.70;9.65;;;;;;;;;;6205991;28;20048;-77
2023/12/03 08:43:24;;;;;;;25.20;9.63;;;;;;;;;;6210736;28;20423;-79
2023/12/03 08:46:26;;;;;;;27.25;10.15;;;;;;;;;;6213283;28;20163;-81
2023/12/03 08:49:28;;;;;;;21.77;8.73;;;;;;;;;;6215991;28;20049;-79
2023/12/03 08:52:30;;;;;;;31.15;11.27;;;;;;;;;;6212085;28;20056;-78
2023/12/03 08:55:32;;;;;;;27.15;10.13;;;;;;;;;;6210524;28;20050;-76
2023/12/03 08:58:34;;;;;;;21.63;9.45;;;;;;;;;;6202139;28;20072;-78
2023/12/03 09:01:40;;;;;;;27.83;10.82;;;;;;;;;;6210396;28;20042;-80
2023/12/03 09:04:42;;;;;;;25.90;9.65;;;;;;;;;;6215311;28;20060;-79
2023/12/03 09:07:44;;;;;;;23.88;10.02;;;;;;;;;;6212323;28;20265;-78
2023/12/03 09:10:46;;;;;;;29.52;10.65;;;;;;;;;;6214208;28;20045;-79
2023/12/03 09:13:48;;;;;;;25.80;9.75;;;;;;;;;;6198053;28;20057;-79
2023/12/03 09:16:49;;;;;;;21.50;8.95;;;;;;;;;;6211666;28;20139;-78
2023/12/03 09:19:51;;;;;;;23.70;9.57;;;;;;;;;;6214319;28;20053;-81
2023/12/03 09:22:53;;;;;;;22.25;9.93;;;;;;;;;;6207957;28;20117;-81
2023/12/03 09:25:54;;;;;;;26.13;10.90;;;;;;;;;;6217189;28;20050;-79
2023/12/03 09:28:56;;;;;;;29.77;10.25;;;;;;;;;;6216649;28;20063;-79
2023/12/03 09:31:58;;;;;;;25.55;9.18;;;;;;;;;;6213575;28;20050;-80
2023/12/03 09:34:59;;;;;;;26.33;10.50;;;;;;;;;;6222336;28;20050;-82
2023/12/03 09:38:01;;;;;;;27.55;10.43;;;;;;;;;;6205799;28;20057;-80
2023/12/03 09:41:08;;;;;;;21.40;8.68;;;;;;;;;;6208245;28;20046;-78
2023/12/03 09:44:35;;;;;;;27.10;10.88;;;;;;;;;;6212027;28;20057;-80
2023/12/03 09:47:37;;;;;;;21.38;9.75;;;;;;;;;;6218203;28;20047;-80
2023/12/03 09:50:43;;;;;;;28.27;9.80;;;;;;;;;;6203437;28;20049;-79
2023/12/03 09:53:47;;;;;;;28.30;11.48;;;;;;;;;;6201592;28;20161;-82
2023/12/03 09:56:56;;;;;;;26.33;11.00;;;;;;;;;;6204448;28;20057;-79
2023/12/03 10:00:01;;;;;;;20.65;8.23;;;;;;;;;;6204820;28;20526;-80
2023/12/03 10:03:10;;;;;;;29.03;10.97;;;;;;;;;;6205431;28;20057;-79
2023/12/03 10:06:12;;;;;;;27.38;10.90;;;;;;;;;;6205149;28;20046;-80
2023/12/03 10:09:14;;;;;;;26.42;10.43;;;;;;;;;;6194628;28;20053;-80
2023/12/03 10:12:17;;;;;;;26.77;11.20;;;;;;;;;;6201082;28;21006;-80
2023/12/03 10:15:22;;;;;;;26.13;10.93;;;;;;;;;;6202922;28;20049;-79
2023/12/03 10:18:24;;;;;;;25.23;9.98;;;;;;;;;;6208958;28;20069;-80
2023/12/03 10:21:27;;;;;;;22.98;9.85;;;;;;;;;;6216985;28;20072;-80
2023/12/03 10:24:30;;;;;;;29.35;10.43;;;;;;;;;;6224605;28;20601;-77
2023/12/03 10:27:32;;;;;;;21.45;9.40;;;;;;;;;;6227563;28;20034;-78
2023/12/03 10:30:36;;;;;;;26.33;11.27;;;;;;;;;;6222409;28;20054;-78
2023/12/03 10:33:38;;;;;;;20.77;9.50;;;;;;;;;;6213177;28;20070;-77
2023/12/03 10:36:42;;;;;;;26.15;10.98;;;;;;;;;;6205448;28;20042;-78
2023/12/03 10:39:44;;;;;;;30.15;12.38;;;;;;;;;;6208240;28;20049;-79
2023/12/03 10:42:46;;;;;;;29.70;12.60;;;;;;;;;;6189700;28;20168;-79
2023/12/03 10:45:53;;;;;;;25.83;11.35;;;;;;;;;;6218805;28;20666;-78
2023/12/03 10:48:56;;;;;;;34.80;13.27;;;;;;;;;;6221611;28;20053;-77
2023/12/03 10:51:59;;;;;;;31.23;12.45;;;;;;;;;;6218979;28;20038;-78
2023/12/03 10:55:02;;;;;;;62.13;22.15;;;;;;;;;;6221278;28;20118;-79
2023/12/03 10:58:05;;;;;;;24.27;10.52;;;;;;;;;;6222652;28;20057;-77
2023/12/03 11:01:22;;;;;;;24.35;9.63;;;;;;;;;;6213798;28;20503;-77
2023/12/03 11:04:47;;;;;;;49.10;18.48;;;;;;;;;;6226212;28;20050;-79
2023/12/03 11:07:49;;;;;;;22.35;10.63;;;;;;;;;;6208218;28;20053;-78
2023/12/03 11:10:54;;;;;;;30.93;11.63;;;;;;;;;;6197912;28;20061;-77
2023/12/03 11:13:57;;;;;;;24.42;10.90;;;;;;;;;;6214249;28;20448;-78
2023/12/03 11:17:31;;;;;;;38.83;14.32;;;;;;;;;;6208252;28;20057;-80
2023/12/03 11:20:37;;;;;;;58.80;19.05;;;;;;;;;;6212944;28;20061;-79
2023/12/03 11:24:26;;;;;;;40.90;14.07;;;;;;;;;;6202613;28;20397;-78
2023/12/03 11:27:27;;;;;;;56.55;18.75;;;;;;;;;;6193230;28;20430;-78
2023/12/03 11:30:37;;;;;;;48.15;15.98;;;;;;;;;;6185912;28;20057;-79
2023/12/03 11:33:58;;;;;;;39.97;13.77;;;;;;;;;;6190275;28;20072;-79
2023/12/03 11:37:01;;;;;;;26.30;10.80;;;;;;;;;;6179712;28;20149;-77
2023/12/03 11:40:14;;;;;;;24.60;10.32;;;;;;;;;;6207193;28;20049;-78
2023/12/03 11:43:30;;;;;;;39.10;14.88;;;;;;;;;;6211520;28;20067;-78
2023/12/03 11:46:44;;;;;;;24.88;11.18;;;;;;;;;;6177131;28;20054;-78
2023/12/03 11:49:47;;;;;;;34.92;13.05;;;;;;;;;;6207192;28;20043;-78
2023/12/03 11:52:49;;;;;;;67.93;23.08;;;;;;;;;;6194319;28;20057;-79
2023/12/03 11:55:51;;;;;;;25.88;10.05;;;;;;;;;;6180304;28;20049;-77
2023/12/03 11:58:54;;;;;;;24.77;9.95;;;;;;;;;;6209169;28;20120;-79
2023/12/03 12:01:56;;;;;;;49.15;17.42;;;;;;;;;;6209567;28;20065;-79
2023/12/03 12:05:04;;;;;;;80.43;28.35;;;;;;;;;;6209526;28;20678;-79
2023/12/03 12:08:06;;;;;;;25.10;9.68;;;;;;;;;;6205706;28;20042;-77
2023/12/03 12:11:08;;;;;;;28.80;11.68;;;;;;;;;;6211509;28;20056;-80
2023/12/03 12:14:10;;;;;;;23.97;10.57;;;;;;;;;;6213224;28;20939;-79
2023/12/03 12:17:12;;;;;;;24.10;9.10;;;;;;;;;;6222735;28;20042;-79
2023/12/03 12:20:27;;;;;;;21.63;9.93;;;;;;;;;;6207655;28;20046;-78
2023/12/03 12:23:29;;;;;;;25.42;11.18;;;;;;;;;;6208124;28;20140;-77
2023/12/03 12:26:31;;;;;;;23.10;8.93;;;;;;;;;;6212281;28;20046;-78
2023/12/03 12:29:33;;;;;;;20.95;8.77;;;;;;;;;;6214448;28;20431;-77
2023/12/03 12:32:35;;;;;;;23.40;9.27;;;;;;;;;;6215173;28;20523;-78
2023/12/03 12:35:37;;;;;;;18.58;7.57;;;;;;;;;;6217009;28;20052;-78
2023/12/03 12:38:40;;;;;;;20.02;8.05;;;;;;;;;;6209669;28;20054;-77
2023/12/03 12:41:42;;;;;;;22.20;8.75;;;;;;;;;;6207441;28;20050;-79
2023/12/03 12:44:44;;;;;;;23.23;9.32;;;;;;;;;;6205429;28;20088;-80
2023/12/03 12:47:50;;;;;;;20.98;9.45;;;;;;;;;;6210841;28;20069;-79
2023/12/03 12:50:52;;;;;;;24.45;9.43;;;;;;;;;;6209499;28;20052;-79
2023/12/03 12:53:58;;;;;;;23.15;9.07;;;;;;;;;;6204282;28;20041;-77
2023/12/03 12:57:00;;;;;;;22.80;11.15;;;;;;;;;;6210232;28;20069;-78
2023/12/03 13:00:02;;;;;;;21.80;9.18;;;;;;;;;;6209227;28;20056;-80
2023/12/03 13:03:04;;;;;;;20.35;8.45;;;;;;;;;;6202248;28;20066;-78
2023/12/03 13:06:10;;;;;;;19.92;8.43;;;;;;;;;;6204467;28;20046;-79
2023/12/03 13:09:18;;;;;;;22.38;9.57;;;;;;;;;;6202422;28;20056;-79
2023/12/03 13:12:20;;;;;;;21.05;9.63;;;;;;;;;;6208441;28;20105;-81
2023/12/03 13:15:22;;;;;;;20.13;8.82;;;;;;;;;;6204411;28;20519;-80
2023/12/03 13:18:24;;;;;;;17.95;7.93;;;;;;;;;;6204212;28;20042;-78
2023/12/03 13:21:27;;;;;;;25.80;10.02;;;;;;;;;;6195440;28;20796;-78
2023/12/03 13:24:30;;;;;;;22.70;9.25;;;;;;;;;;6208272;28;20049;-80
2023/12/03 13:27:32;;;;;;;19.38;8.40;;;;;;;;;;6209807;28;20048;-79
2023/12/03 13:30:35;;;;;;;16.80;7.60;;;;;;;;;;6214618;28;20068;-78
2023/12/03 13:33:37;;;;;;;22.00;8.60;;;;;;;;;;6215923;28;20410;-77
2023/12/03 13:36:39;;;;;;;24.30;8.95;;;;;;;;;;6217436;28;20357;-79
2023/12/03 13:39:41;;;;;;;30.85;12.18;;;;;;;;;;6216469;28;20085;-79
2023/12/03 13:42:50;;;;;;;25.23;10.05;;;;;;;;;;6215798;28;20129;-79
2023/12/03 13:45:51;;;;;;;27.00;10.50;;;;;;;;;;6213131;28;20054;-78
2023/12/03 13:48:53;;;;;;;28.08;10.63;;;;;;;;;;6213963;28;20050;-78
2023/12/03 13:51:55;;;;;;;25.80;10.20;;;;;;;;;;6209080;28;20081;-78
2023/12/03 13:54:58;;;;;;;86.97;25.42;;;;;;;;;;6206871;28;20045;-79
2023/12/03 13:58:01;;;;;;;28.30;11.00;;;;;;;;;;6212757;28;20420;-82
2023/12/03 14:01:03;;;;;;;23.90;9.90;;;;;;;;;;6209724;28;20117;-79
2023/12/03 14:04:05;;;;;;;19.00;7.97;;;;;;;;;;6200623;28;20058;-79
2023/12/03 14:07:07;;;;;;;30.80;11.27;;;;;;;;;;6209307;28;20048;-79
2023/12/03 14:10:09;;;;;;;103.80;30.83;;;;;;;;;;6212696;28;20526;-79
2023/12/03 14:13:11;;;;;;;60.03;37.72;;;;;;;;;;6212705;28;20060;-79
2023/12/03 14:16:16;;;;;;;34.67;18.63;;;;;;;;;;6209926;28;20069;-79
2023/12/03 14:19:18;;;;;;;27.15;11.70;;;;;;;;;;6209516;28;20053;-80
2023/12/03 14:22:19;;;;;;;26.45;10.45;;;;;;;;;;6212668;28;20037;-79
2023/12/03 14:25:22;;;;;;;48.97;18.40;;;;;;;;;;6218107;28;20449;-80
2023/12/03 14:28:24;;;;;;;29.02;13.90;;;;;;;;;;6224249;28;20088;-77
2023/12/03 14:31:29;;;;;;;36.45;16.13;;;;;;;;;;6205242;28;20080;-79
2023/12/03 14:34:32;;;;;;;75.97;26.70;;;;;;;;;;6206298;28;20514;-79
2023/12/03 14:37:34;;;;;;;46.65;20.80;;;;;;;;;;6207945;28;20682;-79
2023/12/03 14:40:36;;;;;;;52.50;29.20;;;;;;;;;;6206668;28;20042;-78
2023/12/03 14:43:42;;;;;;;90.35;46.25;;;;;;;;;;6195412;28;20073;-77
2023/12/03 14:46:44;;;;;;;41.28;20.73;;;;;;;;;;6192913;28;20212;-78
2023/12/03 14:49:45;;;;;;;45.17;22.30;;;;;;;;;;6193287;28;20068;-79
2023/12/03 14:52:48;;;;;;;34.55;15.73;;;;;;;;;;6189392;28;20125;-79
2023/12/03 14:55:50;;;;;;;34.35;15.18;;;;;;;;;;6170750;28;20138;-79
2023/12/03 14:58:56;;;;;;;31.50;12.68;;;;;;;;;;6191915;28;20535;-80
2023/12/03 15:01:57;;;;;;;32.03;14.75;;;;;;;;;;6192490;28;20496;-79
2023/12/03 15:04:59;;;;;;;27.50;12.52;;;;;;;;;;6189274;28;20672;-79
2023/12/03 15:08:01;;;;;;;26.75;10.55;;;;;;;;;;6198811;28;20042;-81
2023/12/03 15:11:03;;;;;;;25.63;10.98;;;;;;;;;;6197894;28;20046;-80
2023/12/03 15:14:05;;;;;;;28.80;11.77;;;;;;;;;;6189851;28;20058;-79
2023/12/03 15:17:07;;;;;;;25.08;10.05;;;;;;;;;;6208043;28;20062;-81
2023/12/03 15:20:09;;;;;;;23.83;10.90;;;;;;;;;;6193941;28;20042;-79
2023/12/03 15:23:11;;;;;;;27.58;9.98;;;;;;;;;;6179601;28;20081;-81
2023/12/03 15:26:13;;;;;;;28.23;11.10;;;;;;;;;;6184584;28;20098;-81
2023/12/03 15:29:15;;;;;;;32.97;11.45;;;;;;;;;;6203260;28;20057;-81
2023/12/03 15:32:17;;;;;;;29.98;10.95;;;;;;;;;;6194103;28;20106;-79
2023/12/03 15:35:19;;;;;;;25.63;12.20;;;;;;;;;;6191116;28;20054;-78
2023/12/03 15:38:21;;;;;;;30.55;11.15;;;;;;;;;;6198782;28;20057;-79
2023/12/03 15:41:23;;;;;;;23.33;10.00;;;;;;;;;;6189963;28;20050;-80
2023/12/03 15:44:27;;;;;;;27.10;10.85;;;;;;;;;;6187122;28;20058;-79
2023/12/03 15:47:29;;;;;;;29.17;13.82;;;;;;;;;;6186721;28;20058;-77
2023/12/03 15:50:32;;;;;;;29.83;11.73;;;;;;;;;;6194743;28;20049;-78
2023/12/03 15:53:34;;;;;;;28.07;10.50;;;;;;;;;;6208384;28;20051;-75
2023/12/03 15:56:36;;;;;;;34.80;13.23;;;;;;;;;;6206275;28;20050;-76
2023/12/03 15:59:38;;;;;;;33.78;14.23;;;;;;;;;;6191110;28;20060;-76
2023/12/03 16:02:42;;;;;;;36.95;14.82;;;;;;;;;;6198392;28;20237;-77
2023/12/03 16:05:45;;;;;;;39.58;16.30;;;;;;;;;;6201204;28;20060;-77
2023/12/03 16:08:49;;;;;;;34.72;13.80;;;;;;;;;;6183170;28;20121;-77
2023/12/03 16:11:57;;;;;;;35.28;14.35;;;;;;;;;;6211720;28;20037;-78
2023/12/03 16:15:00;;;;;;;35.22;13.15;;;;;;;;;;6211241;28;20049;-76
2023/12/03 16:18:01;;;;;;;38.47;13.70;;;;;;;;;;6207031;28;20050;-76
2023/12/03 16:21:04;;;;;;;36.38;14.60;;;;;;;;;;6221333;28;20607;-77
2023/12/03 16:24:06;;;;;;;35.58;15.02;;;;;;;;;;6209271;28;20046;-77
2023/12/03 16:27:08;;;;;;;33.92;13.35;;;;;;;;;;6187042;28;20042;-77
2023/12/03 16:30:11;;;;;;;33.95;14.07;;;;;;;;;;6204178;28;20050;-78
2023/12/03 16:33:12;;;;;;;34.92;14.50;;;;;;;;;;6214737;28;20058;-78
2023/12/03 16:36:15;;;;;;;31.55;13.02;;;;;;;;;;6213428;28;20052;-78
2023/12/03 16:39:17;;;;;;;30.02;13.20;;;;;;;;;;6213925;28;20212;-78
2023/12/03 16:42:19;;;;;;;31.83;12.93;;;;;;;;;;6215771;28;20396;-78
2023/12/03 16:45:22;;;;;;;35.58;14.25;;;;;;;;;;6214391;28;20391;-78
2023/12/03 16:48:24;;;;;;;36.42;12.98;;;;;;;;;;6220128;28;20050;-78
2023/12/03 16:51:26;;;;;;;34.17;12.57;;;;;;;;;;6213426;28;20156;-78
2023/12/03 16:54:28;;;;;;;33.78;13.15;;;;;;;;;;6214867;28;20184;-78
2023/12/03 16:57:31;;;;;;;37.55;12.55;;;;;;;;;;6213204;28;20061;-77
2023/12/03 17:00:33;;;;;;;37.35;12.82;;;;;;;;;;6216206;28;20057;-76
2023/12/03 17:03:36;;;;;;;33.42;13.95;;;;;;;;;;6217940;28;20522;-76
2023/12/03 17:06:39;;;;;;;37.33;13.90;;;;;;;;;;6220212;28;20046;-77
2023/12/03 17:09:40;;;;;;;33.53;14.07;;;;;;;;;;6219198;28;20049;-78
2023/12/03 17:12:42;;;;;;;36.30;15.65;;;;;;;;;;6194049;28;20089;-78
2023/12/03 17:15:55;;;;;;;37.15;13.73;;;;;;;;;;6219208;28;20068;-77
2023/12/03 17:18:57;;;;;;;31.65;13.18;;;;;;;;;;6192422;28;20046;-76
2023/12/03 17:21:59;;;;;;;34.53;12.90;;;;;;;;;;6202009;28;20049;-77
2023/12/03 17:25:01;;;;;;;38.10;14.55;;;;;;;;;;6220443;28;20716;-77
2023/12/03 17:28:04;;;;;;;34.17;12.80;;;;;;;;;;6221008;28;20050;-81
2023/12/03 17:31:06;;;;;;;37.80;14.02;;;;;;;;;;6208906;28;20054;-79
2023/12/03 17:34:11;;;;;;;46.58;23.25;;;;;;;;;;6219414;28;20054;-78
2023/12/03 17:37:13;;;;;;;47.67;22.33;;;;;;;;;;6193787;28;22110;-78
2023/12/03 17:40:16;;;;;;;38.17;13.75;;;;;;;;;;6216798;28;20503;-77
2023/12/03 17:43:17;;;;;;;44.07;17.07;;;;;;;;;;6216361;28;20049;-77
2023/12/03 17:46:20;;;;;;;52.28;22.85;;;;;;;;;;6216494;28;20057;-79
2023/12/03 17:49:21;;;;;;;50.92;23.75;;;;;;;;;;6207650;28;20057;-77